Time;durP1;ratioP1;P1;durP2;ratioP2;P2;SDS_P1;SDS_P2;PMS_P1;PMS_P2;Temp;Humidity;BMP_temperature;BMP_pressure;BME280_temperature;BME280_humidity;BME280_pressure;Samples;Min_cycle;Max_cycle;Signal;HPM_P1;HPM_P2
2021/08/06 00:00:16;;;;;;;14.63;13.52;;;14.30;85.80;;;;;;5058062;29;20056;-69
2021/08/06 00:02:48;;;;;;;14.48;13.48;;;14.40;86.90;;;;;;5055958;29;20076;-68
2021/08/06 00:05:20;;;;;;;14.07;13.07;;;14.40;86.40;;;;;;5054763;29;20100;-68
2021/08/06 00:07:53;;;;;;;14.02;12.93;;;14.40;86.50;;;;;;5055424;29;20133;-69
2021/08/06 00:10:26;;;;;;;14.05;13.05;;;14.30;86.80;;;;;;5055950;29;20140;-67
2021/08/06 00:12:58;;;;;;;14.45;13.38;;;14.30;86.90;;;;;;5055138;29;20041;-68
2021/08/06 00:15:30;;;;;;;14.27;13.27;;;14.20;86.90;;;;;;5052855;29;20045;-69
2021/08/06 00:18:02;;;;;;;14.60;13.60;;;14.20;86.70;;;;;;5054934;29;20135;-68
2021/08/06 00:20:36;;;;;;;14.50;13.18;;;14.20;86.70;;;;;;5051706;29;20045;-67
2021/08/06 00:23:08;;;;;;;14.38;13.27;;;14.20;86.60;;;;;;5053863;29;20100;-68
2021/08/06 00:25:40;;;;;;;13.85;12.75;;;14.10;86.70;;;;;;5058272;29;20052;-67
2021/08/06 00:28:12;;;;;;;14.05;13.02;;;14.10;86.90;;;;;;5039371;29;20048;-69
2021/08/06 00:30:44;;;;;;;14.30;13.30;;;14.00;86.90;;;;;;5053840;29;21127;-67
2021/08/06 00:33:17;;;;;;;14.48;13.48;;;14.00;87.00;;;;;;5037868;29;20052;-68
2021/08/06 00:35:52;;;;;;;14.35;13.35;;;14.00;86.90;;;;;;5039713;29;20041;-67
2021/08/06 00:38:26;;;;;;;14.27;13.13;;;14.00;87.00;;;;;;5041992;29;20139;-66
2021/08/06 00:40:59;;;;;;;14.20;13.20;;;14.00;87.30;;;;;;5055823;29;20100;-67
2021/08/06 00:43:32;;;;;;;14.77;13.48;;;14.00;87.30;;;;;;5046158;29;20056;-66
2021/08/06 00:46:13;;;;;;;15.00;13.70;;;14.00;87.10;;;;;;5040492;29;20044;-66
2021/08/06 00:48:47;;;;;;;15.45;14.15;;;14.00;87.00;;;;;;5051459;29;20078;-69
2021/08/06 00:51:19;;;;;;;13.85;12.85;;;13.90;87.10;;;;;;5036982;29;20465;-67
2021/08/06 00:53:57;;;;;;;14.60;13.60;;;13.90;87.10;;;;;;5044335;29;20045;-68
2021/08/06 00:56:41;;;;;;;14.50;13.50;;;13.90;87.30;;;;;;5055215;29;20048;-67
2021/08/06 00:59:14;;;;;;;14.45;13.43;;;13.90;86.80;;;;;;5039320;29;20302;-67
2021/08/06 01:01:55;;;;;;;14.43;13.43;;;13.90;86.70;;;;;;5032191;29;20062;-69
2021/08/06 01:04:51;;;;;;;14.18;13.18;;;13.90;86.40;;;;;;5047247;29;20087;-68
2021/08/06 01:07:36;;;;;;;14.23;13.20;;;13.90;86.80;;;;;;5056080;29;20156;-68
2021/08/06 01:10:11;;;;;;;14.93;13.73;;;13.90;86.40;;;;;;5038518;29;20063;-67
2021/08/06 01:12:56;;;;;;;;;;;13.90;86.30;;;;;;5042989;29;20105;-69
2021/08/06 01:15:34;;;;;;;14.90;13.70;;;13.90;86.50;;;;;;5052839;29;19975;-70
2021/08/06 01:18:13;;;;;;;14.38;13.38;;;13.80;86.40;;;;;;5054820;29;20520;-68
2021/08/06 01:20:54;;;;;;;14.35;13.25;;;13.80;86.50;;;;;;5030981;29;20043;-70
2021/08/06 01:23:37;;;;;;;14.65;13.65;;;13.80;86.50;;;;;;5050776;29;20048;-70
2021/08/06 01:26:14;;;;;;;14.88;13.82;;;13.80;86.50;;;;;;5052946;29;20498;-69
2021/08/06 01:28:58;;;;;;;14.30;13.30;;;13.80;86.50;;;;;;5030206;29;20041;-67
2021/08/06 01:31:34;;;;;;;14.45;13.38;;;13.70;86.50;;;;;;5044527;29;20048;-70
2021/08/06 01:34:19;;;;;;;14.73;13.70;;;13.70;86.50;;;;;;5038520;29;20053;-67
2021/08/06 01:36:52;;;;;;;14.73;13.73;;;13.70;86.60;;;;;;5042673;29;20048;-67
2021/08/06 01:39:44;;;;;;;15.02;13.93;;;13.60;86.40;;;;;;5051197;29;20057;-67
2021/08/06 01:42:54;;;;;;;14.82;13.68;;;13.70;86.60;;;;;;5040485;29;20427;-68
2021/08/06 01:45:31;;;;;;;14.63;13.52;;;13.60;86.20;;;;;;5026292;29;20075;-67
2021/08/06 01:48:11;;;;;;;15.00;13.80;;;13.60;85.90;;;;;;5037445;29;20511;-68
2021/08/06 01:50:46;;;;;;;15.25;14.13;;;13.60;86.10;;;;;;5057192;29;20037;-69
2021/08/06 01:53:25;;;;;;;15.00;13.93;;;13.60;86.50;;;;;;5044102;29;20541;-67
2021/08/06 01:56:08;;;;;;;14.70;13.63;;;13.60;86.30;;;;;;5052426;29;20305;-68
2021/08/06 01:58:57;;;;;;;14.73;13.52;;;13.60;86.20;;;;;;5034289;29;20068;-68
2021/08/06 02:01:42;;;;;;;14.68;13.50;;;13.60;86.40;;;;;;5038075;29;20053;-68
2021/08/06 02:04:19;;;;;;;15.13;13.95;;;13.60;86.30;;;;;;5036631;29;20148;-70
2021/08/06 02:07:05;;;;;;;15.40;14.10;;;13.60;86.30;;;;;;5037637;29;20064;-68
2021/08/06 02:09:38;;;;;;;14.88;13.77;;;13.60;86.30;;;;;;5057049;29;20051;-69
2021/08/06 02:12:14;;;;;;;14.70;13.50;;;13.60;86.10;;;;;;5040094;29;20041;-66
2021/08/06 02:17:56;;;;;;;;;;;13.60;86.80;;;;;;5085076;23;20559;-66
2021/08/06 02:20:42;;;;;;;15.05;13.85;;;13.60;86.80;;;;;;5046500;29;20026;-66
2021/08/06 02:23:18;;;;;;;15.48;14.38;;;13.60;86.60;;;;;;5033443;29;20529;-67
2021/08/06 02:25:54;;;;;;;15.93;14.80;;;13.60;86.60;;;;;;5046560;29;20051;-67
2021/08/06 02:28:29;;;;;;;15.70;14.60;;;13.70;87.10;;;;;;5031164;29;20040;-67
2021/08/06 02:31:02;;;;;;;15.63;14.32;;;13.60;87.00;;;;;;5032712;29;20048;-69
2021/08/06 02:33:35;;;;;;;14.95;13.65;;;13.60;87.20;;;;;;5036815;29;20506;-67
2021/08/06 02:36:07;;;;;;;19.92;15.30;;;13.60;86.90;;;;;;5045268;29;20049;-67
2021/08/06 02:38:40;;;;;;;15.20;14.00;;;13.70;86.80;;;;;;5046550;29;20052;-69
2021/08/06 02:41:12;;;;;;;14.27;13.27;;;13.70;86.80;;;;;;5033766;29;20049;-68
2021/08/06 02:43:44;;;;;;;15.65;14.40;;;13.70;86.60;;;;;;5045249;29;20071;-68
2021/08/06 02:46:16;;;;;;;15.15;13.95;;;13.70;86.60;;;;;;5023206;29;20084;-67
2021/08/06 02:48:48;;;;;;;15.00;13.90;;;13.70;87.00;;;;;;5037642;29;20064;-69
2021/08/06 02:51:22;;;;;;;15.30;14.20;;;13.70;87.10;;;;;;5036802;29;20053;-69
2021/08/06 02:53:54;;;;;;;15.23;14.13;;;13.70;86.60;;;;;;5049383;29;20045;-67
2021/08/06 02:56:27;;;;;;;15.55;14.25;;;13.70;87.30;;;;;;5035791;29;20120;-69
2021/08/06 02:58:59;;;;;;;15.30;14.10;;;13.70;86.60;;;;;;5036802;29;20450;-69
2021/08/06 03:01:31;;;;;;;15.10;14.00;;;13.70;87.00;;;;;;5051631;29;20045;-70
2021/08/06 03:04:06;;;;;;;15.27;14.18;;;13.70;87.40;;;;;;5034988;29;20067;-69
2021/08/06 03:06:39;;;;;;;15.15;14.00;;;13.70;87.00;;;;;;5032030;29;20045;-70
2021/08/06 03:09:11;;;;;;;15.27;14.07;;;13.70;87.30;;;;;;5040706;29;20136;-70
2021/08/06 03:11:43;;;;;;;15.23;14.13;;;13.80;87.10;;;;;;5050578;29;20772;-71
2021/08/06 03:14:15;;;;;;;15.02;13.93;;;13.80;87.40;;;;;;5026731;29;20444;-70
2021/08/06 03:16:48;;;;;;;14.85;13.80;;;13.80;88.10;;;;;;5033918;29;20060;-71
2021/08/06 03:19:20;;;;;;;14.63;13.63;;;13.80;87.60;;;;;;5049565;29;20040;-70
2021/08/06 03:21:52;;;;;;;15.07;13.98;;;13.80;87.60;;;;;;5046802;29;20176;-70
2021/08/06 03:24:24;;;;;;;15.07;13.88;;;13.80;87.00;;;;;;5035511;29;20053;-69
2021/08/06 03:26:57;;;;;;;13.90;12.90;;;13.80;87.00;;;;;;5039860;29;20771;-68
2021/08/06 03:29:29;;;;;;;14.95;13.85;;;13.80;87.00;;;;;;5039570;29;20063;-69
2021/08/06 03:32:01;;;;;;;15.40;14.30;;;13.80;86.70;;;;;;5030636;29;20048;-69
2021/08/06 03:34:33;;;;;;;15.35;14.15;;;13.80;86.50;;;;;;5036860;29;20063;-70
2021/08/06 03:37:05;;;;;;;14.75;13.65;;;13.80;87.00;;;;;;5039690;29;20094;-69
2021/08/06 03:39:41;;;;;;;14.90;13.80;;;13.80;87.70;;;;;;5034949;29;20108;-69
2021/08/06 03:42:13;;;;;;;14.90;13.90;;;13.80;87.50;;;;;;5033954;29;20060;-69
2021/08/06 03:44:45;;;;;;;14.50;13.43;;;13.80;87.70;;;;;;5038304;29;20037;-68
2021/08/06 03:47:20;;;;;;;15.02;14.02;;;13.80;88.20;;;;;;5047117;29;20033;-67
2021/08/06 03:49:52;;;;;;;15.10;13.80;;;13.80;88.90;;;;;;5035297;29;20049;-68
2021/08/06 03:52:24;;;;;;;15.40;14.30;;;13.80;88.50;;;;;;5037163;29;20041;-68
2021/08/06 03:54:56;;;;;;;14.90;13.70;;;13.80;88.40;;;;;;5046870;29;20209;-68
2021/08/06 03:57:28;;;;;;;15.85;14.55;;;13.80;89.30;;;;;;5045071;29;20041;-68
2021/08/06 04:00:00;;;;;;;15.43;14.30;;;13.80;89.00;;;;;;5048092;29;20492;-68
2021/08/06 04:02:36;;;;;;;15.02;14.02;;;13.80;89.60;;;;;;5050444;29;20056;-68
2021/08/06 04:05:08;;;;;;;15.52;14.43;;;13.70;89.30;;;;;;5040605;29;20051;-69
2021/08/06 04:07:45;;;;;;;15.88;14.68;;;13.70;88.60;;;;;;5040301;29;20052;-68
2021/08/06 04:10:22;;;;;;;15.95;14.85;;;13.70;87.40;;;;;;5032289;29;20138;-69
2021/08/06 04:12:55;;;;;;;15.35;14.23;;;13.80;87.70;;;;;;5035029;29;20127;-67
2021/08/06 04:15:27;;;;;;;14.93;13.93;;;13.80;88.10;;;;;;5035063;29;20136;-69
2021/08/06 04:17:59;;;;;;;15.75;14.45;;;13.90;88.00;;;;;;5034539;29;20045;-67
2021/08/06 04:20:32;;;;;;;15.50;14.20;;;13.90;88.20;;;;;;5029185;29;20053;-70
2021/08/06 04:23:04;;;;;;;14.95;13.85;;;13.90;88.30;;;;;;5037241;29;20102;-67
2021/08/06 04:25:36;;;;;;;15.02;13.93;;;13.90;88.10;;;;;;5033664;29;20045;-68
2021/08/06 04:28:08;;;;;;;15.25;14.05;;;13.90;88.20;;;;;;5036235;29;20049;-67
2021/08/06 04:30:40;;;;;;;14.90;13.80;;;14.00;87.90;;;;;;5032871;29;20087;-68
2021/08/06 04:33:12;;;;;;;15.07;13.88;;;14.00;87.80;;;;;;5047536;29;20123;-69
2021/08/06 04:35:44;;;;;;;15.10;14.00;;;14.00;87.90;;;;;;5048496;29;20128;-69
2021/08/06 04:38:17;;;;;;;15.20;14.10;;;14.00;88.40;;;;;;5030380;29;20068;-69
2021/08/06 04:40:49;;;;;;;14.88;13.77;;;14.00;88.50;;;;;;5034681;29;20996;-68
2021/08/06 04:43:20;;;;;;;14.95;13.75;;;14.00;88.40;;;;;;5031268;29;20053;-68
2021/08/06 04:45:52;;;;;;;14.65;13.55;;;13.90;88.50;;;;;;5032100;29;20580;-68
2021/08/06 04:48:24;;;;;;;15.77;14.48;;;13.90;88.70;;;;;;5051087;29;20052;-68
2021/08/06 04:50:56;;;;;;;15.30;14.00;;;13.90;88.10;;;;;;5049407;29;20045;-68
2021/08/06 04:53:30;;;;;;;15.20;14.00;;;13.90;88.00;;;;;;5031079;29;20045;-68
2021/08/06 04:56:03;;;;;;;14.90;13.80;;;13.80;88.30;;;;;;5040834;29;20084;-70
2021/08/06 04:58:35;;;;;;;14.32;13.23;;;13.80;87.90;;;;;;5045903;29;20057;-68
2021/08/06 05:01:08;;;;;;;14.88;13.68;;;13.80;88.10;;;;;;5049862;29;20698;-67
2021/08/06 05:03:40;;;;;;;14.57;13.57;;;13.80;88.10;;;;;;5046720;29;20061;-69
2021/08/06 05:06:13;;;;;;;14.43;13.43;;;13.80;88.00;;;;;;5032984;29;20054;-67
2021/08/06 05:08:49;;;;;;;15.23;14.02;;;13.80;88.20;;;;;;5047836;29;20392;-69
2021/08/06 05:11:21;;;;;;;14.75;13.65;;;13.80;88.00;;;;;;5046786;29;20059;-67
2021/08/06 05:13:53;;;;;;;15.18;14.07;;;13.80;87.70;;;;;;5043583;29;20053;-67
2021/08/06 05:16:26;;;;;;;15.10;14.00;;;13.90;87.70;;;;;;5045845;29;20057;-67
2021/08/06 05:18:58;;;;;;;14.48;13.43;;;13.90;88.00;;;;;;5046520;29;20076;-68
2021/08/06 05:21:30;;;;;;;14.55;13.45;;;14.00;87.60;;;;;;5046521;29;20055;-69
2021/08/06 05:24:02;;;;;;;14.52;13.52;;;14.10;87.20;;;;;;5045525;29;20127;-69
2021/08/06 05:26:35;;;;;;;15.07;13.88;;;14.20;87.30;;;;;;5030360;29;20049;-67
2021/08/06 05:29:09;;;;;;;15.10;13.93;;;14.30;87.10;;;;;;5030197;29;20144;-67
2021/08/06 05:31:41;;;;;;;15.07;13.98;;;14.30;86.20;;;;;;5042959;29;20135;-67
2021/08/06 05:34:14;;;;;;;15.25;13.98;;;14.40;86.10;;;;;;5047777;29;20542;-67
2021/08/06 05:36:46;;;;;;;14.80;13.70;;;14.50;86.20;;;;;;5030279;29;20041;-68
2021/08/06 05:39:17;;;;;;;14.90;13.85;;;14.60;86.20;;;;;;5040085;29;20063;-69
2021/08/06 05:41:49;;;;;;;15.15;14.05;;;14.60;86.20;;;;;;5045479;29;20440;-68
2021/08/06 05:44:23;;;;;;;15.60;14.50;;;14.60;85.60;;;;;;5030981;29;20056;-69
2021/08/06 05:46:55;;;;;;;15.07;13.98;;;14.60;85.20;;;;;;5047222;29;20045;-69
2021/08/06 05:49:27;;;;;;;15.30;14.20;;;14.50;85.90;;;;;;5037955;29;20071;-67
2021/08/06 05:51:59;;;;;;;15.30;14.10;;;14.60;86.80;;;;;;5031965;29;20511;-68
2021/08/06 05:54:31;;;;;;;15.52;14.40;;;14.60;87.60;;;;;;5044682;29;20773;-69
2021/08/06 05:57:03;;;;;;;15.85;14.55;;;14.70;89.10;;;;;;5046440;29;20132;-68
2021/08/06 05:59:35;;;;;;;15.93;14.52;;;14.60;89.00;;;;;;5047142;29;20534;-69
2021/08/06 06:02:07;;;;;;;16.00;14.80;;;14.70;89.00;;;;;;5046883;29;20052;-68
2021/08/06 06:05:02;;;;;;;15.00;13.95;;;14.60;88.10;;;;;;5044891;29;20065;-70
2021/08/06 06:07:48;;;;;;;15.35;14.15;;;14.60;87.50;;;;;;5032805;29;20041;-67
2021/08/06 06:10:22;;;;;;;15.20;14.02;;;14.60;87.80;;;;;;5028633;29;20053;-69
2021/08/06 06:12:55;;;;;;;15.68;14.25;;;14.70;89.00;;;;;;5030394;29;20056;-67
2021/08/06 06:15:28;;;;;;;15.88;14.73;;;14.70;89.10;;;;;;5041371;29;20081;-67
2021/08/06 06:18:00;;;;;;;15.35;14.25;;;14.70;89.10;;;;;;5045075;29;20041;-69
2021/08/06 06:20:33;;;;;;;15.77;14.57;;;14.60;89.40;;;;;;5037705;29;20470;-69
2021/08/06 06:23:06;;;;;;;16.35;15.15;;;14.60;89.40;;;;;;5047360;29;20063;-68
2021/08/06 06:25:38;;;;;;;15.75;14.52;;;14.60;89.20;;;;;;5049610;29;20123;-68
2021/08/06 06:28:10;;;;;;;15.88;14.60;;;14.70;89.40;;;;;;5037693;29;20052;-67
2021/08/06 06:30:47;;;;;;;15.90;14.70;;;14.70;89.10;;;;;;5046743;29;20045;-70
2021/08/06 06:33:20;;;;;;;15.50;14.05;;;14.70;88.80;;;;;;5047364;29;20060;-69
2021/08/06 06:35:54;;;;;;;15.60;14.40;;;14.80;88.70;;;;;;5047965;29;20132;-69
2021/08/06 06:38:27;;;;;;;15.95;14.52;;;14.90;89.30;;;;;;5035596;29;20049;-69
2021/08/06 06:41:00;;;;;;;15.32;14.23;;;14.90;89.60;;;;;;5042133;29;20049;-69
2021/08/06 06:43:36;;;;;;;16.15;15.02;;;14.90;90.10;;;;;;5046846;29;20053;-69
2021/08/06 06:46:09;;;;;;;16.02;14.82;;;14.90;90.00;;;;;;5036371;29;20575;-68
2021/08/06 06:48:41;;;;;;;15.73;14.63;;;14.90;89.90;;;;;;5047919;29;20514;-70
2021/08/06 06:51:13;;;;;;;15.93;14.70;;;15.00;89.80;;;;;;5029652;29;20048;-69
2021/08/06 06:53:47;;;;;;;16.25;15.05;;;15.00;89.60;;;;;;5035710;29;20048;-69
2021/08/06 06:56:20;;;;;;;16.48;15.10;;;15.00;90.00;;;;;;5047379;29;20052;-71
2021/08/06 06:58:53;;;;;;;16.52;15.40;;;15.10;90.20;;;;;;5048809;29;20135;-70
2021/08/06 07:01:29;;;;;;;17.20;16.00;;;15.10;90.30;;;;;;5011670;29;20073;-70
2021/08/06 07:04:01;;;;;;;17.40;16.20;;;15.10;90.20;;;;;;5035653;29;20502;-71
2021/08/06 07:06:33;;;;;;;17.10;15.90;;;15.00;89.80;;;;;;5049465;29;20514;-70
2021/08/06 07:09:09;;;;;;;16.77;15.23;;;15.00;89.40;;;;;;5032532;29;20502;-71
2021/08/06 07:11:42;;;;;;;16.85;15.50;;;14.90;89.20;;;;;;5029690;29;20468;-70
2021/08/06 07:14:14;;;;;;;16.90;15.60;;;14.90;89.80;;;;;;5045034;29;20095;-69
2021/08/06 07:16:46;;;;;;;16.15;14.93;;;15.00;89.50;;;;;;5034651;29;20511;-71
2021/08/06 07:19:18;;;;;;;16.30;15.10;;;15.10;89.70;;;;;;5029854;29;20143;-71
2021/08/06 07:21:51;;;;;;;16.58;15.30;;;15.20;88.70;;;;;;5030797;29;20045;-71
2021/08/06 07:24:23;;;;;;;16.15;15.05;;;15.30;88.90;;;;;;5045525;29;20076;-70
2021/08/06 07:26:55;;;;;;;16.10;14.93;;;15.40;88.90;;;;;;5046004;29;20465;-71
2021/08/06 07:29:27;;;;;;;16.90;15.70;;;15.40;88.10;;;;;;5045323;29;20411;-69
2021/08/06 07:31:59;;;;;;;16.98;15.70;;;15.50;89.20;;;;;;5032239;29;20048;-69
2021/08/06 07:34:31;;;;;;;17.25;16.05;;;15.60;88.80;;;;;;5048675;29;20065;-69
2021/08/06 07:37:04;;;;;;;16.60;15.40;;;15.70;89.90;;;;;;5048030;29;20589;-69
2021/08/06 07:39:38;;;;;;;16.45;15.25;;;15.70;89.40;;;;;;5034602;29;20052;-69
2021/08/06 07:42:10;;;;;;;17.17;15.98;;;15.80;89.10;;;;;;5033990;29;20608;-69
2021/08/06 07:44:43;;;;;;;17.08;15.80;;;16.00;89.60;;;;;;5041100;29;20136;-70
2021/08/06 07:47:15;;;;;;;16.85;15.55;;;16.10;89.20;;;;;;5047333;29;20049;-70
2021/08/06 07:49:47;;;;;;;17.05;15.80;;;16.20;88.70;;;;;;5044952;29;20128;-70
2021/08/06 07:52:20;;;;;;;17.73;16.42;;;16.30;87.90;;;;;;5036892;29;20053;-70
2021/08/06 07:54:52;;;;;;;17.55;16.25;;;16.60;86.90;;;;;;5032997;29;20047;-70
2021/08/06 07:57:25;;;;;;;17.00;15.80;;;16.90;87.40;;;;;;5033954;29;20041;-70
2021/08/06 07:59:57;;;;;;;16.65;15.38;;;17.10;87.00;;;;;;5026553;29;20056;-69
2021/08/06 08:02:31;;;;;;;17.30;16.00;;;17.40;86.30;;;;;;5029771;29;20049;-70
2021/08/06 08:05:05;;;;;;;17.13;15.73;;;17.50;85.00;;;;;;5046959;29;20053;-72
2021/08/06 08:07:37;;;;;;;16.70;15.43;;;17.60;84.20;;;;;;5035408;29;20163;-69
2021/08/06 08:10:09;;;;;;;16.80;15.60;;;17.60;83.20;;;;;;5034845;29;20045;-72
2021/08/06 08:12:42;;;;;;;16.58;15.38;;;17.60;85.00;;;;;;5039403;29;20075;-71
2021/08/06 08:15:14;;;;;;;15.90;14.80;;;17.50;83.60;;;;;;5047235;29;20052;-72
2021/08/06 08:17:46;;;;;;;16.02;14.73;;;17.40;83.30;;;;;;5045783;29;20049;-71
2021/08/06 08:20:19;;;;;;;16.48;15.27;;;17.30;84.20;;;;;;5038988;29;20064;-71
2021/08/06 08:22:52;;;;;;;16.30;15.15;;;17.30;85.30;;;;;;5031109;29;20914;-69
2021/08/06 08:25:24;;;;;;;16.70;15.50;;;17.40;85.00;;;;;;5036320;29;20067;-70
2021/08/06 08:27:56;;;;;;;17.23;15.95;;;17.50;85.80;;;;;;5037523;29;20499;-71
2021/08/06 08:30:28;;;;;;;17.08;15.88;;;17.50;85.60;;;;;;5039949;29;20057;-69
2021/08/06 08:33:06;;;;;;;17.10;15.90;;;17.60;85.30;;;;;;5036290;29;20084;-68
2021/08/06 08:35:38;;;;;;;17.17;15.98;;;17.70;84.90;;;;;;5047109;29;20052;-69
2021/08/06 08:38:10;;;;;;;16.80;15.60;;;17.70;85.20;;;;;;5049984;29;20072;-69
2021/08/06 08:40:42;;;;;;;17.77;16.42;;;17.80;86.00;;;;;;5038543;29;20948;-69
2021/08/06 08:43:15;;;;;;;16.92;15.73;;;17.80;85.30;;;;;;5039460;29;20072;-69
2021/08/06 08:45:48;;;;;;;17.25;15.90;;;17.70;84.90;;;;;;5030256;29;20048;-71
2021/08/06 08:48:21;;;;;;;17.10;15.90;;;17.70;84.60;;;;;;5015311;29;20424;-71
2021/08/06 08:50:54;;;;;;;16.75;15.55;;;17.70;84.70;;;;;;5049161;29;20068;-69
2021/08/06 08:53:28;;;;;;;16.80;15.60;;;17.70;85.80;;;;;;5030433;29;20048;-68
2021/08/06 08:56:01;;;;;;;16.83;15.63;;;17.70;85.50;;;;;;5036221;29;20635;-70
2021/08/06 08:58:38;;;;;;;16.70;15.23;;;17.70;86.20;;;;;;5029352;29;20053;-70
2021/08/06 09:01:11;;;;;;;16.85;15.65;;;17.70;86.40;;;;;;5050833;29;20048;-71
2021/08/06 09:03:52;;;;;;;17.20;15.90;;;17.80;86.60;;;;;;5029806;29;20049;-71
2021/08/06 09:06:43;;;;;;;17.55;16.25;;;17.80;86.50;;;;;;5017962;29;20053;-72
2021/08/06 09:09:41;;;;;;;16.73;15.52;;;17.90;86.30;;;;;;5043713;29;20049;-70
2021/08/06 09:13:00;;;;;;;16.90;15.60;;;18.00;85.50;;;;;;5049824;29;20056;-70
2021/08/06 09:15:59;;;;;;;16.70;15.50;;;18.00;85.00;;;;;;5045795;29;20044;-70
2021/08/06 09:18:43;;;;;;;16.55;15.30;;;18.10;84.70;;;;;;5040257;29;20045;-70
2021/08/06 09:21:15;;;;;;;17.48;16.08;;;18.10;85.70;;;;;;5048371;29;20128;-70
2021/08/06 09:23:55;;;;;;;17.30;16.00;;;18.10;84.90;;;;;;5045639;29;20066;-71
2021/08/06 09:26:27;;;;;;;17.40;16.20;;;18.10;84.20;;;;;;5047746;29;20069;-71
2021/08/06 09:29:14;;;;;;;17.67;16.40;;;18.10;84.30;;;;;;5047060;29;20044;-71
2021/08/06 09:31:57;;;;;;;17.85;16.55;;;18.30;85.90;;;;;;5032225;29;20075;-73
2021/08/06 09:34:32;;;;;;;17.50;16.30;;;18.60;84.30;;;;;;5047642;29;20415;-70
2021/08/06 09:37:11;;;;;;;17.95;16.65;;;18.80;81.10;;;;;;5040734;29;20146;-71
2021/08/06 09:39:55;;;;;;;18.80;17.50;;;19.00;80.30;;;;;;5047062;29;20040;-71
2021/08/06 09:42:29;;;;;;;17.58;16.27;;;19.40;80.50;;;;;;5047828;29;20136;-72
2021/08/06 09:45:15;;;;;;;18.02;16.67;;;19.60;79.60;;;;;;5044226;29;20555;-72
2021/08/06 09:47:55;;;;;;;17.55;16.35;;;19.90;80.20;;;;;;5053296;29;20510;-71
2021/08/06 09:50:38;;;;;;;17.27;16.05;;;20.00;78.20;;;;;;5051370;29;20051;-72
2021/08/06 09:53:12;;;;;;;17.63;16.35;;;19.80;77.20;;;;;;5049623;29;20123;-71
2021/08/06 09:55:46;;;;;;;18.25;16.95;;;19.80;76.70;;;;;;5048347;29;20057;-71
2021/08/06 09:58:21;;;;;;;17.85;16.65;;;19.80;75.80;;;;;;5022619;29;20527;-71
2021/08/06 10:00:55;;;;;;;18.30;17.08;;;19.90;77.70;;;;;;5039543;29;20048;-71
2021/08/06 10:03:37;;;;;;;17.92;16.63;;;20.10;76.00;;;;;;5052432;29;20128;-71
2021/08/06 10:06:21;;;;;;;17.63;16.30;;;20.10;77.10;;;;;;5032859;29;20051;-71
2021/08/06 10:08:53;;;;;;;17.67;16.40;;;20.10;77.60;;;;;;5051129;29;20051;-72
2021/08/06 10:11:25;;;;;;;17.52;16.20;;;20.10;76.50;;;;;;5049590;29;20053;-73
2021/08/06 10:13:57;;;;;;;18.60;17.20;;;20.10;77.20;;;;;;5051508;29;20124;-73
2021/08/06 10:16:29;;;;;;;18.85;17.55;;;20.20;77.30;;;;;;5053598;29;20104;-72
2021/08/06 10:19:01;;;;;;;18.83;17.52;;;20.60;77.40;;;;;;5050713;29;20045;-72
2021/08/06 10:21:33;;;;;;;18.48;17.00;;;20.90;75.70;;;;;;5046324;29;20751;-73
2021/08/06 10:24:05;;;;;;;17.85;16.60;;;21.20;75.20;;;;;;5048983;29;20048;-73
2021/08/06 10:26:37;;;;;;;18.13;16.80;;;21.20;72.50;;;;;;5047128;29;20053;-73
2021/08/06 10:29:10;;;;;;;17.67;16.48;;;21.10;72.10;;;;;;5049851;29;20051;-72
2021/08/06 10:31:43;;;;;;;17.42;16.13;;;21.10;72.60;;;;;;5039780;29;20140;-73
2021/08/06 10:34:15;;;;;;;17.05;15.75;;;21.00;71.10;;;;;;5048660;29;20048;-73
2021/08/06 10:36:50;;;;;;;17.42;16.13;;;21.10;72.40;;;;;;5040311;29;20092;-73
2021/08/06 10:39:33;;;;;;;17.77;16.48;;;20.90;72.40;;;;;;5051220;29;20059;-72
2021/08/06 10:42:05;;;;;;;18.08;16.75;;;21.00;73.30;;;;;;5048284;29;20048;-73
2021/08/06 10:44:57;;;;;;;17.92;16.73;;;21.20;73.00;;;;;;5034592;29;20104;-72
2021/08/06 10:47:49;;;;;;;18.33;17.05;;;21.40;74.10;;;;;;5050215;29;20108;-73
2021/08/06 10:50:22;;;;;;;17.90;16.70;;;21.80;71.90;;;;;;5045724;29;20049;-74
2021/08/06 10:53:19;;;;;;;18.17;16.85;;;21.80;68.90;;;;;;5049974;29;20041;-74
2021/08/06 10:56:16;;;;;;;17.98;16.67;;;22.00;68.70;;;;;;5033125;29;20407;-72
2021/08/06 10:58:53;;;;;;;17.83;16.50;;;21.90;68.40;;;;;;5049567;29;20527;-74
2021/08/06 11:01:30;;;;;;;17.10;15.80;;;21.60;68.50;;;;;;5042099;29;20053;-72
2021/08/06 11:04:22;;;;;;;17.42;16.23;;;21.40;66.00;;;;;;5041577;29;20802;-74
2021/08/06 11:06:55;;;;;;;16.95;15.75;;;21.10;64.80;;;;;;5050079;29;20454;-74
2021/08/06 11:09:33;;;;;;;17.88;16.52;;;21.00;68.20;;;;;;5050169;29;20061;-73
2021/08/06 11:12:07;;;;;;;17.50;16.23;;;21.00;68.70;;;;;;5050226;29;20059;-73
2021/08/06 11:14:39;;;;;;;18.25;16.90;;;20.90;71.40;;;;;;5047721;29;20049;-74
2021/08/06 11:17:18;;;;;;;18.23;16.83;;;21.00;70.40;;;;;;5035119;29;20056;-77
2021/08/06 11:19:53;;;;;;;18.02;16.73;;;20.90;67.40;;;;;;5048702;29;20056;-74
2021/08/06 11:22:40;;;;;;;18.30;17.00;;;20.90;69.50;;;;;;5049462;29;20053;-73
2021/08/06 11:25:25;;;;;;;18.77;17.38;;;20.90;68.60;;;;;;5040994;29;20055;-71
2021/08/06 11:28:02;;;;;;;18.33;17.02;;;20.90;68.80;;;;;;5048413;29;20101;-71
2021/08/06 11:30:36;;;;;;;17.48;16.23;;;21.10;69.90;;;;;;5052784;29;20049;-72
2021/08/06 11:33:11;;;;;;;17.80;16.50;;;21.10;68.00;;;;;;5047259;29;20057;-70
2021/08/06 11:35:47;;;;;;;17.48;16.17;;;21.00;70.40;;;;;;5027413;29;20049;-72
2021/08/06 11:38:23;;;;;;;17.88;16.58;;;21.00;63.80;;;;;;5048286;29;20503;-71
2021/08/06 11:40:57;;;;;;;17.38;15.90;;;21.10;68.80;;;;;;5047164;29;20061;-71
2021/08/06 11:43:35;;;;;;;17.35;16.05;;;21.00;63.20;;;;;;5047782;29;20048;-71
2021/08/06 11:46:09;;;;;;;17.92;16.50;;;20.90;64.30;;;;;;5036899;29;20060;-70
2021/08/06 11:48:53;;;;;;;17.60;16.30;;;20.90;63.50;;;;;;5050457;29;20562;-70
2021/08/06 11:51:25;;;;;;;17.45;16.10;;;21.40;65.50;;;;;;5049292;29;20064;-70
2021/08/06 11:54:07;;;;;;;17.48;16.00;;;21.70;63.00;;;;;;5048903;29;20049;-70
2021/08/06 11:56:39;;;;;;;17.58;16.27;;;22.00;63.50;;;;;;5050315;29;20582;-70
2021/08/06 11:59:11;;;;;;;17.60;16.40;;;22.40;63.50;;;;;;5027902;29;20041;-70
2021/08/06 12:01:43;;;;;;;17.67;16.45;;;22.60;61.40;;;;;;5022617;29;20045;-70
2021/08/06 12:04:26;;;;;;;17.67;16.38;;;22.70;62.50;;;;;;5048254;29;20052;-71
2021/08/06 12:06:58;;;;;;;18.10;16.70;;;22.90;59.30;;;;;;5048146;29;20089;-70
2021/08/06 12:09:30;;;;;;;17.73;16.50;;;23.10;61.70;;;;;;5039715;29;20935;-69
2021/08/06 12:12:02;;;;;;;17.92;16.58;;;23.30;60.00;;;;;;5035464;29;20041;-71
2021/08/06 12:14:34;;;;;;;17.85;16.60;;;23.20;59.30;;;;;;5034254;29;20132;-70
2021/08/06 12:17:18;;;;;;;18.00;16.42;;;22.90;58.90;;;;;;5047086;29;20127;-71
2021/08/06 12:19:52;;;;;;;17.42;16.23;;;22.50;57.40;;;;;;5048843;29;20352;-72
2021/08/06 12:22:24;;;;;;;17.77;16.45;;;22.30;61.20;;;;;;5047201;29;20828;-70
2021/08/06 12:25:11;;;;;;;17.40;16.20;;;22.10;59.00;;;;;;5048570;29;20519;-69
2021/08/06 12:27:43;;;;;;;18.20;16.90;;;22.10;59.50;;;;;;5048066;29;20073;-72
2021/08/06 12:30:28;;;;;;;17.95;16.65;;;22.30;58.90;;;;;;5046448;29;20871;-70
2021/08/06 12:33:02;;;;;;;17.27;16.08;;;22.40;60.00;;;;;;5047902;29;20041;-72
2021/08/06 12:35:33;;;;;;;17.80;16.60;;;22.70;61.50;;;;;;5035081;29;20535;-72
2021/08/06 12:38:22;;;;;;;18.20;16.85;;;22.80;58.00;;;;;;5047329;29;20103;-72
2021/08/06 12:40:56;;;;;;;18.33;17.02;;;23.00;62.10;;;;;;5048348;29;20131;-70
2021/08/06 12:43:28;;;;;;;18.70;17.10;;;23.30;59.20;;;;;;5034549;29;20052;-71
2021/08/06 12:46:15;;;;;;;18.25;16.95;;;23.30;55.70;;;;;;5044374;29;20041;-72
2021/08/06 12:49:08;;;;;;;18.10;16.80;;;23.50;59.00;;;;;;5045790;29;20049;-72
2021/08/06 12:51:40;;;;;;;18.85;17.45;;;23.80;58.70;;;;;;5045984;29;20124;-70
2021/08/06 12:54:42;;;;;;;18.60;17.17;;;23.90;56.40;;;;;;5047341;29;20072;-70
2021/08/06 12:57:14;;;;;;;18.92;17.50;;;24.00;54.90;;;;;;5047321;29;20139;-71
2021/08/06 12:59:46;;;;;;;18.52;17.13;;;24.10;57.00;;;;;;5039691;29;20062;-72
2021/08/06 13:02:21;;;;;;;18.70;17.40;;;24.10;57.80;;;;;;5045343;29;20108;-70
2021/08/06 13:04:54;;;;;;;18.88;17.40;;;24.10;55.10;;;;;;5032831;29;20056;-70
2021/08/06 13:07:28;;;;;;;18.48;17.02;;;24.30;56.60;;;;;;5049855;29;20136;-70
2021/08/06 13:10:01;;;;;;;19.30;17.90;;;24.40;56.00;;;;;;5049053;29;20612;-70
2021/08/06 13:12:33;;;;;;;18.65;17.35;;;24.30;53.90;;;;;;5047127;29;20048;-73